Time;durP1;ratioP1;P1;durP2;ratioP2;P2;SDS_P1;SDS_P2;PMS_P1;PMS_P2;Temp;Humidity;BMP_temperature;BMP_pressure;BME280_temperature;BME280_humidity;BME280_pressure;Samples;Min_cycle;Max_cycle;Signal;HPM_P1;HPM_P2
2021/01/18 00:02:08;;;;;;;91.17;28.17;;;;;;;-14.50;64.30;99662.36;1763716;79;21915;-51
2021/01/18 00:04:35;;;;;;;111.70;33.23;;;;;;;-14.50;64.29;99672.70;1765352;79;21872;-50
2021/01/18 00:07:06;;;;;;;62.37;18.30;;;;;;;-14.52;64.31;99674.31;1751061;80;21911;-51
2021/01/18 00:09:34;;;;;;;89.60;25.13;;;;;;;-14.53;64.28;99683.77;1754361;80;22551;-51
2021/01/18 00:12:01;;;;;;;84.90;25.13;;;;;;;-14.50;64.28;99677.47;1753361;80;21874;-51
2021/01/18 00:14:28;;;;;;;155.03;46.90;;;;;;;-14.47;64.21;99671.16;1760416;79;21867;-52
2021/01/18 00:16:57;;;;;;;147.97;47.60;;;;;;;-14.48;64.18;99676.25;1756297;80;22473;-51
2021/01/18 00:19:24;;;;;;;104.17;32.07;;;;;;;-14.47;64.22;99676.73;1755420;80;22265;-50
2021/01/18 00:21:52;;;;;;;78.27;23.07;;;;;;;-14.45;64.06;99686.72;1782944;78;22338;-50
2021/01/18 00:24:19;;;;;;;72.13;21.77;;;;;;;-14.47;63.98;99681.50;1783095;78;22090;-51
2021/01/18 00:26:46;;;;;;;105.10;32.00;;;;;;;-14.53;64.11;99682.88;1765326;79;21850;-50
2021/01/18 00:29:14;;;;;;;67.57;22.13;;;;;;;-14.53;64.11;99682.88;1755202;80;21507;-50
2021/01/18 00:31:46;;;;;;;78.60;25.83;;;;;;;-14.54;64.10;99680.70;1782670;78;21818;-49
2021/01/18 00:34:13;;;;;;;66.87;22.10;;;;;;;-14.57;63.98;99673.70;1784427;78;21829;-50
2021/01/18 00:36:47;;;;;;;65.80;19.70;;;;;;;-14.57;63.95;99688.32;1787008;78;21485;-49
2021/01/18 00:39:15;;;;;;;47.23;14.00;;;;;;;-14.57;63.95;99688.32;1756986;80;21529;-50
2021/01/18 00:41:42;;;;;;;38.03;13.50;;;;;;;-14.57;64.22;99680.56;1754046;80;22727;-49
2021/01/18 00:44:09;;;;;;;54.47;18.73;;;;;;;-14.58;64.12;99679.68;1786052;78;21807;-50
2021/01/18 00:46:36;;;;;;;45.30;14.17;;;;;;;-14.57;64.09;99677.58;1785974;78;22191;-50
2021/01/18 00:49:05;;;;;;;33.77;8.80;;;;;;;-14.54;64.16;99679.84;1788863;78;21866;-49
2021/01/18 00:51:37;;;;;;;36.97;10.30;;;;;;;-14.56;64.04;99673.30;1762939;79;22375;-52
2021/01/18 00:54:05;;;;;;;37.53;9.63;;;;;;;-14.56;64.04;99673.30;1772570;79;21131;-50
2021/01/18 00:56:35;;;;;;;38.83;9.30;;;;;;;-14.59;64.00;99674.43;1767112;79;21876;-50
2021/01/18 00:59:03;;;;;;;28.73;7.67;;;;;;;-14.61;63.88;99683.39;1764534;79;21948;-52
2021/01/18 01:01:38;;;;;;;30.63;10.00;;;;;;;-14.64;63.93;99683.27;1763589;79;21930;-50
2021/01/18 01:04:06;;;;;;;33.03;9.03;;;;;;;-14.64;63.93;99683.27;1744012;80;21442;-50
2021/01/18 01:06:34;;;;;;;36.07;8.90;;;;;;;-14.65;63.99;99684.47;1738875;81;21982;-51
2021/01/18 01:09:03;;;;;;;38.97;7.83;;;;;;;-14.63;63.94;99677.69;1737832;81;21833;-52
2021/01/18 01:11:31;;;;;;;27.23;7.97;;;;;;;-14.62;63.94;99676.45;1751595;79;21900;-51
2021/01/18 01:13:58;;;;;;;27.10;8.73;;;;;;;-14.62;63.94;99676.45;1750661;80;21253;-49
2021/01/18 01:16:25;;;;;;;29.83;7.30;;;;;;;-14.59;63.87;99679.59;1739493;81;22542;-49
2021/01/18 01:18:53;;;;;;;33.40;8.20;;;;;;;-14.60;63.81;99677.42;1741833;81;21883;-50
2021/01/18 01:21:20;;;;;;;28.07;6.20;;;;;;;-14.62;63.77;99680.73;1738582;81;21910;-51
2021/01/18 01:23:47;;;;;;;27.00;6.90;;;;;;;-14.67;63.68;99679.63;1741529;80;21927;-50
2021/01/18 01:26:15;;;;;;;24.80;7.37;;;;;;;-14.71;63.79;99679.86;1741419;81;21898;-52
2021/01/18 01:28:42;;;;;;;30.70;8.37;;;;;;;-14.73;63.80;99678.05;1738719;80;21857;-51
2021/01/18 01:31:09;;;;;;;19.63;5.83;;;;;;;-14.77;63.97;99686.44;1741962;81;21880;-49
2021/01/18 01:33:36;;;;;;;27.93;6.53;;;;;;;-14.77;63.98;99678.69;1741702;81;21893;-50
2021/01/18 01:36:05;;;;;;;27.53;6.43;;;;;;;-14.76;64.05;99680.46;1739822;81;23347;-51
2021/01/18 01:38:34;;;;;;;25.40;7.33;;;;;;;-14.74;64.15;99682.32;1753332;79;21890;-50
2021/01/18 01:41:02;;;;;;;22.77;6.47;;;;;;;-14.68;64.03;99683.02;1740159;80;21911;-50
2021/01/18 01:43:29;;;;;;;22.93;6.87;;;;;;;-14.68;64.03;99683.02;1742341;81;21117;-50
2021/01/18 01:45:56;;;;;;;21.43;5.83;;;;;;;-14.71;63.98;99677.69;1740780;81;21877;-50
2021/01/18 01:48:25;;;;;;;17.87;5.13;;;;;;;-14.73;64.02;99669.00;1738871;81;22504;-50
2021/01/18 01:50:52;;;;;;;16.37;4.63;;;;;;;-14.75;64.00;99668.91;1740912;81;21870;-50
2021/01/18 01:53:26;;;;;;;25.70;6.63;;;;;;;-14.76;63.94;99666.25;1741390;81;21866;-49
2021/01/18 01:55:54;;;;;;;24.57;6.47;;;;;;;-14.78;64.05;99660.11;1741456;81;21900;-50
2021/01/18 01:58:22;;;;;;;20.67;5.10;;;;;;;-14.81;63.93;99662.56;1741196;81;21195;-50
2021/01/18 02:00:49;;;;;;;23.30;5.53;;;;;;;-14.85;64.04;99660.22;1741215;80;21856;-51
2021/01/18 02:03:40;;;;;;;21.07;6.17;;;;;;;-14.84;64.20;99664.58;1748714;80;21878;-52
2021/01/18 02:06:10;;;;;;;26.50;5.43;;;;;;;-14.83;64.15;99665.06;1782556;78;21871;-51
2021/01/18 02:08:38;;;;;;;19.50;5.57;;;;;;;-14.83;64.03;99665.06;1784423;78;21879;-50
2021/01/18 02:11:05;;;;;;;24.47;6.57;;;;;;;-14.89;64.04;99657.02;1760102;79;21856;-51
2021/01/18 02:14:22;;;;;;;18.80;5.00;;;;;;;-14.93;64.18;99658.06;1761030;79;22324;-50
2021/01/18 02:17:04;;;;;;;22.30;5.33;;;;;;;-14.96;64.11;99663.55;1743510;79;21924;-51
2021/01/18 02:19:59;;;;;;;27.73;6.27;;;;;;;-14.99;64.21;99668.59;1762076;79;22211;-50
2021/01/18 02:23:18;;;;;;;23.03;5.83;;;;;;;-14.92;64.24;99666.30;1818728;77;23498;-51
2021/01/18 02:25:49;;;;;;;23.63;4.37;;;;;;;-14.98;64.19;99667.78;1802047;78;21200;-52
2021/01/18 02:28:49;;;;;;;25.80;6.40;;;;;;;-14.99;64.21;99665.11;1771305;78;21881;-52
2021/01/18 02:31:30;;;;;;;24.23;5.80;;;;;;;-15.01;64.25;99666.72;1800799;78;23229;-50
2021/01/18 02:34:20;;;;;;;25.67;5.83;;;;;;;-15.05;64.14;99675.11;1741537;80;21860;-51
2021/01/18 02:37:21;;;;;;;23.13;5.80;;;;;;;-15.09;64.19;99666.74;1725387;81;21858;-50
2021/01/18 02:40:06;;;;;;;23.80;6.27;;;;;;;-15.13;64.21;99676.02;1739921;81;21866;-49
2021/01/18 02:42:43;;;;;;;22.47;7.40;;;;;;;-15.17;64.18;99679.27;1682988;82;21896;-51
2021/01/18 02:45:11;;;;;;;25.40;6.57;;;;;;;-15.19;64.23;99677.00;1718886;81;21749;-51
2021/01/18 02:47:38;;;;;;;26.60;5.63;;;;;;;-15.19;64.25;99674.82;1723407;81;21874;-51
2021/01/18 02:50:07;;;;;;;23.63;6.03;;;;;;;-15.21;64.29;99677.31;1718898;81;21889;-49
2021/01/18 02:52:40;;;;;;;26.83;7.20;;;;;;;-15.22;64.20;99679.41;1721507;81;21871;-50
2021/01/18 02:55:09;;;;;;;18.33;4.17;;;;;;;-15.22;64.28;99681.14;1720598;81;21946;-49
2021/01/18 02:57:39;;;;;;;29.00;6.67;;;;;;;-15.25;64.26;99684.44;1720910;81;21207;-53
2021/01/18 03:00:20;;;;;;;22.87;6.07;;;;;;;-15.27;64.25;99689.03;1715508;81;21839;-52
2021/01/18 03:03:13;;;;;;;31.73;6.87;;;;;;;-15.24;64.42;99686.22;1717722;81;21909;-50
2021/01/18 03:06:00;;;;;;;22.27;6.60;;;;;;;-15.23;64.23;99687.99;1697613;81;22436;-51
2021/01/18 03:08:35;;;;;;;23.40;5.70;;;;;;;-15.23;64.13;99692.27;1719616;81;21868;-50
2021/01/18 03:11:09;;;;;;;21.63;5.50;;;;;;;-15.27;64.05;99698.06;1723938;81;21838;-52
2021/01/18 03:13:41;;;;;;;22.70;4.53;;;;;;;-15.30;64.15;99691.03;1724907;81;21853;-52
2021/01/18 03:16:19;;;;;;;23.93;7.00;;;;;;;-15.30;64.13;99696.60;1715919;81;21533;-53
2021/01/18 03:18:53;;;;;;;22.50;7.57;;;;;;;-15.26;64.07;99697.27;1824203;75;22690;-52
2021/01/18 03:21:20;;;;;;;25.93;6.47;;;;;;;-15.31;63.95;99703.48;1790075;77;21024;-53
2021/01/18 03:23:48;;;;;;;24.73;5.13;;;;;;;-15.34;63.93;99694.28;1800875;77;22183;-52
2021/01/18 03:26:15;;;;;;;18.33;6.53;;;;;;;-15.37;63.64;99695.00;1794493;76;21671;-52
2021/01/18 03:28:43;;;;;;;23.90;6.30;;;;;;;-15.41;63.82;99700.83;1792746;77;21617;-53
2021/01/18 03:31:10;;;;;;;21.23;5.23;;;;;;;-15.42;63.91;99704.61;1792583;77;21785;-52
2021/01/18 03:33:37;;;;;;;23.53;5.60;;;;;;;-15.42;63.95;99710.66;1792773;77;21783;-53
2021/01/18 03:36:05;;;;;;;21.17;5.53;;;;;;;-15.41;63.93;99715.42;1794953;77;21646;-53
2021/01/18 03:38:33;;;;;;;20.57;6.57;;;;;;;-15.41;63.87;99711.15;1739693;80;21685;-53
2021/01/18 03:41:01;;;;;;;27.80;5.97;;;;;;;-15.43;63.77;99712.75;1756815;79;21863;-52
2021/01/18 03:43:29;;;;;;;25.23;5.63;;;;;;;-15.46;63.68;99703.95;1716115;81;22556;-53
2021/01/18 03:45:56;;;;;;;21.97;5.53;;;;;;;-15.48;63.48;99707.73;1713539;81;21846;-53
2021/01/18 03:48:24;;;;;;;25.73;6.03;;;;;;;-15.55;63.10;99708.25;1764752;79;22353;-52
2021/01/18 03:50:51;;;;;;;20.43;4.97;;;;;;;-15.59;63.36;99701.17;1765121;79;22149;-52
2021/01/18 03:53:18;;;;;;;20.03;4.93;;;;;;;-15.64;63.24;99698.73;1770420;79;22395;-53
2021/01/18 03:55:48;;;;;;;23.83;6.13;;;;;;;-15.65;63.33;99703.44;1771441;79;21810;-52
2021/01/18 03:58:16;;;;;;;23.83;6.17;;;;;;;-15.65;63.36;99703.84;1767916;79;21788;-51
2021/01/18 04:00:43;;;;;;;23.50;6.07;;;;;;;-15.67;63.33;99701.17;1769381;79;21846;-52
2021/01/18 04:03:10;;;;;;;22.60;6.03;;;;;;;-15.66;63.39;99702.06;1770120;79;21887;-53
2021/01/18 04:05:38;;;;;;;28.23;7.67;;;;;;;-15.66;63.53;99696.90;1767290;79;21890;-52
2021/01/18 04:08:05;;;;;;;21.13;6.20;;;;;;;-15.66;63.32;99699.48;1765596;79;21835;-52
2021/01/18 04:10:32;;;;;;;22.97;5.83;;;;;;;-15.72;63.16;99698.73;1764663;79;21898;-52
2021/01/18 04:13:00;;;;;;;23.07;6.43;;;;;;;-15.77;62.85;99692.05;1763844;79;21896;-51
2021/01/18 04:15:27;;;;;;;28.17;7.37;;;;;;;-15.82;62.63;99692.61;1767791;79;23016;-52
2021/01/18 04:17:56;;;;;;;25.03;5.23;;;;;;;-15.88;62.82;99696.13;1765636;79;21870;-52
2021/01/18 04:20:24;;;;;;;29.87;8.43;;;;;;;-15.91;62.87;99702.03;1768662;79;21894;-53
2021/01/18 04:22:55;;;;;;;26.87;7.23;;;;;;;-15.92;62.98;99707.09;1769638;79;22321;-52
2021/01/18 04:25:26;;;;;;;24.67;6.60;;;;;;;-15.95;63.07;99704.34;1769736;79;22458;-53
2021/01/18 04:27:56;;;;;;;24.03;6.40;;;;;;;-15.93;63.13;99707.90;1767580;79;21904;-52
2021/01/18 04:30:25;;;;;;;18.70;5.67;;;;;;;-15.96;63.09;99706.03;1765007;79;21818;-51
2021/01/18 04:33:05;;;;;;;23.50;5.90;;;;;;;-15.97;63.18;99712.38;1763387;79;22171;-52
2021/01/18 04:35:36;;;;;;;27.73;5.63;;;;;;;-15.97;63.13;99717.54;1766210;79;21847;-54
2021/01/18 04:38:03;;;;;;;22.37;5.80;;;;;;;-16.00;62.99;99716.11;1769074;79;23516;-53
2021/01/18 04:40:32;;;;;;;22.57;5.33;;;;;;;-16.08;62.95;99718.27;1763126;79;22196;-52
2021/01/18 04:43:00;;;;;;;28.10;6.67;;;;;;;-16.08;62.95;99724.70;1761952;79;22559;-55
2021/01/18 04:45:28;;;;;;;30.50;6.37;;;;;;;-16.09;62.99;99722.93;1768239;79;22924;-50
2021/01/18 04:47:57;;;;;;;19.73;5.23;;;;;;;-16.13;62.77;99728.70;1769203;79;21877;-51
2021/01/18 04:51:03;;;;;;;23.00;6.83;;;;;;;-16.14;63.01;99725.23;1794368;78;23743;-53
2021/01/18 04:53:30;;;;;;;25.47;5.67;;;;;;;-16.18;62.96;99733.62;1770799;79;21091;-52
2021/01/18 04:56:03;;;;;;;26.03;5.90;;;;;;;-16.17;62.95;99734.11;1767790;79;21814;-52
2021/01/18 04:58:30;;;;;;;25.37;6.27;;;;;;;-16.19;62.78;99733.52;1771390;79;21889;-53
2021/01/18 05:01:04;;;;;;;28.17;6.53;;;;;;;-16.21;62.59;99736.01;1765401;79;21872;-53
2021/01/18 05:03:36;;;;;;;30.70;7.73;;;;;;;-16.25;62.75;99727.64;1736849;81;21801;-53
2021/01/18 05:06:14;;;;;;;25.70;6.97;;;;;;;-16.29;62.50;99735.09;1697187;81;21918;-52
2021/01/18 05:09:18;;;;;;;30.50;7.30;;;;;;;-16.33;62.70;99729.30;1711541;81;22184;-52
2021/01/18 05:11:48;;;;;;;25.17;6.03;;;;;;;-16.33;62.70;99729.30;1721435;81;21602;-53
2021/01/18 05:14:16;;;;;;;23.17;5.03;;;;;;;-16.35;62.48;99742.09;1737022;81;21011;-53
2021/01/18 05:16:54;;;;;;;28.70;6.03;;;;;;;-16.37;62.35;99751.81;1738278;81;21740;-53
2021/01/18 05:19:23;;;;;;;26.60;6.07;;;;;;;-16.42;62.44;99747.70;1720423;81;21917;-53
2021/01/18 05:21:51;;;;;;;26.67;6.17;;;;;;;-16.45;61.99;99747.52;1723217;81;22283;-53
2021/01/18 05:24:19;;;;;;;27.10;6.50;;;;;;;-16.52;62.03;99748.86;1674591;83;21848;-53
2021/01/18 05:27:07;;;;;;;25.53;5.83;;;;;;;-16.61;61.78;99755.20;1703272;82;21744;-52
2021/01/18 05:29:37;;;;;;;23.10;5.27;;;;;;;-16.61;61.78;99755.20;1711602;82;21860;-51
2021/01/18 05:32:22;;;;;;;24.10;5.83;;;;;;;-16.64;61.67;99762.34;1727128;81;21866;-52
2021/01/18 05:35:11;;;;;;;23.30;4.93;;;;;;;-16.71;61.72;99757.63;1716298;82;21775;-54
2021/01/18 05:38:09;;;;;;;22.10;5.87;;;;;;;-16.74;61.84;99753.97;1719252;82;21768;-53
2021/01/18 05:40:45;;;;;;;26.93;6.70;;;;;;;-16.73;61.86;99763.09;1719851;82;21920;-52
2021/01/18 05:43:16;;;;;;;30.13;7.03;;;;;;;-16.73;61.86;99763.09;1692614;82;21663;-53
2021/01/18 05:45:46;;;;;;;20.80;5.40;;;;;;;-16.76;61.87;99772.34;1689360;82;21744;-53
2021/01/18 05:48:17;;;;;;;29.13;6.07;;;;;;;-16.73;62.29;99775.96;1692174;82;22261;-53
2021/01/18 05:50:45;;;;;;;19.40;5.13;;;;;;;-16.73;62.29;99775.96;1668577;82;21938;-53
2021/01/18 05:53:28;;;;;;;28.03;6.53;;;;;;;-16.73;62.22;99784.97;1659315;84;21808;-53
2021/01/18 05:56:19;;;;;;;25.33;6.47;;;;;;;-16.72;62.38;99793.59;1669999;83;21769;-53
2021/01/18 05:58:47;;;;;;;28.63;5.57;;;;;;;-16.72;62.27;99787.16;1719792;81;21997;-51
2021/01/18 06:01:14;;;;;;;22.73;6.10;;;;;;;-16.72;62.27;99787.16;1721619;81;22380;-52
2021/01/18 06:03:42;;;;;;;24.23;4.80;;;;;;;-16.83;62.00;99794.23;1636133;81;22368;-52
2021/01/18 06:06:10;;;;;;;28.73;5.90;;;;;;;-16.84;62.29;99799.32;1719809;81;21730;-52
2021/01/18 06:08:43;;;;;;;23.47;7.07;;;;;;;-16.84;62.29;99799.32;1723112;81;21640;-52
2021/01/18 06:11:11;;;;;;;26.00;6.75;;;;;;;-16.83;62.51;99795.92;1714623;81;21634;-53
2021/01/18 06:13:39;;;;;;;30.50;7.23;;;;;;;-16.71;62.70;99798.84;1720853;81;22144;-53
2021/01/18 06:16:11;;;;;;;26.23;7.27;;;;;;;-16.71;62.70;99798.84;1693630;81;21577;-54
2021/01/18 06:18:40;;;;;;;33.33;7.60;;;;;;;-16.62;62.83;99801.06;1721037;81;21901;-54
2021/01/18 06:21:10;;;;;;;30.17;7.40;;;;;;;-16.59;62.64;99797.36;1717983;81;21718;-54
2021/01/18 06:23:37;;;;;;;29.87;7.50;;;;;;;-16.54;62.75;99788.20;1715761;81;21616;-55
2021/01/18 06:26:04;;;;;;;36.13;8.03;;;;;;;-16.52;62.68;99790.08;1718486;81;21669;-51
2021/01/18 06:28:34;;;;;;;34.90;7.23;;;;;;;-16.48;62.77;99802.72;1719702;81;22392;-53
2021/01/18 06:31:09;;;;;;;29.67;8.30;;;;;;;-16.41;62.80;99802.70;1721875;81;22316;-54
2021/01/18 06:33:49;;;;;;;34.33;9.20;;;;;;;-16.37;62.75;99808.50;1717669;81;22642;-53
2021/01/18 06:36:21;;;;;;;34.77;7.70;;;;;;;-16.31;62.81;99813.60;1716461;81;22201;-52
2021/01/18 06:39:03;;;;;;;35.47;7.40;;;;;;;-16.23;63.05;99816.22;1717648;81;21615;-53
2021/01/18 06:41:35;;;;;;;27.77;8.77;;;;;;;-16.15;62.77;99811.50;1713700;81;21843;-51
2021/01/18 06:44:03;;;;;;;28.83;8.13;;;;;;;-16.11;62.82;99809.20;1720275;81;21817;-53
2021/01/18 06:46:35;;;;;;;34.47;9.23;;;;;;;-16.02;62.75;99806.66;1719000;81;22369;-52
2021/01/18 06:49:06;;;;;;;30.93;7.73;;;;;;;-15.97;62.73;99800.05;1652669;84;22353;-53
2021/01/18 06:51:33;;;;;;;35.73;8.20;;;;;;;-15.92;62.69;99813.72;1740902;80;22200;-53
2021/01/18 06:54:02;;;;;;;38.10;9.53;;;;;;;-15.89;62.72;99814.27;1740521;80;21852;-53
2021/01/18 06:56:56;;;;;;;31.33;9.10;;;;;;;-15.84;62.76;99815.43;1716532;80;22259;-53
2021/01/18 06:59:52;;;;;;;36.70;7.93;;;;;;;-15.78;62.76;99822.21;1743318;80;22779;-53
2021/01/18 07:02:23;;;;;;;34.00;8.80;;;;;;;-15.73;62.81;99823.34;1746259;80;21821;-52
2021/01/18 07:04:51;;;;;;;37.07;9.83;;;;;;;-15.67;62.99;99830.16;1744588;80;21969;-51
2021/01/18 07:07:27;;;;;;;34.17;9.07;;;;;;;-15.63;62.84;99826.04;1738714;80;22288;-51
2021/01/18 07:10:08;;;;;;;35.10;7.47;;;;;;;-15.61;62.83;99828.31;1744573;80;21918;-52
2021/01/18 07:12:35;;;;;;;39.37;11.17;;;;;;;-15.58;62.90;99837.12;1741035;80;21896;-52
2021/01/18 07:15:08;;;;;;;37.43;8.83;;;;;;;-15.54;63.02;99843.31;1736217;80;21896;-52
2021/01/18 07:17:55;;;;;;;23.18;6.17;;;;;;;-15.50;63.08;99839.69;1745696;80;22325;-51
2021/01/18 07:20:27;;;;;;;31.53;6.43;;;;;;;-15.42;63.09;99839.70;1743902;80;21740;-53
2021/01/18 07:23:13;;;;;;;27.30;6.83;;;;;;;-15.42;63.09;99839.70;1738602;80;21910;-52
2021/01/18 07:25:44;;;;;;;40.17;10.73;;;;;;;-15.39;63.08;99839.84;1741604;80;21214;-53
2021/01/18 07:28:13;;;;;;;30.63;7.70;;;;;;;-15.42;63.17;99838.81;1672289;83;21898;-52
2021/01/18 07:30:41;;;;;;;25.20;6.77;;;;;;;-15.43;63.14;99841.80;1706992;82;21854;-53
2021/01/18 07:33:11;;;;;;;28.77;6.50;;;;;;;-15.42;63.41;99842.69;1707324;82;22909;-51
2021/01/18 07:35:39;;;;;;;36.17;9.70;;;;;;;-15.38;63.61;99839.05;1674821;83;22312;-51
2021/01/18 07:38:18;;;;;;;29.87;8.33;;;;;;;-15.30;63.50;99839.86;1676713;83;21830;-51
2021/01/18 07:41:11;;;;;;;33.60;9.00;;;;;;;-15.30;63.51;99838.17;1674879;83;22288;-53
2021/01/18 07:43:42;;;;;;;31.90;8.17;;;;;;;-15.25;63.57;99840.63;1676087;83;21921;-51
2021/01/18 07:46:32;;;;;;;30.97;9.13;;;;;;;-15.20;63.73;99847.31;1673405;83;21915;-51
2021/01/18 07:50:05;;;;;;;36.23;9.07;;;;;;;-15.13;63.72;99845.14;1706123;82;22000;-52
2021/01/18 07:52:33;;;;;;;37.20;8.63;;;;;;;-15.04;63.75;99838.28;1644704;83;21922;-52
2021/01/18 07:55:01;;;;;;;19.63;6.03;;;;;;;-14.93;63.58;99851.78;1669800;82;21910;-52
2021/01/18 07:57:39;;;;;;;25.97;6.70;;;;;;;-14.91;63.70;99858.81;1666998;82;21912;-53
2021/01/18 08:00:28;;;;;;;25.37;7.77;;;;;;;-14.83;63.62;99856.23;1679559;82;22431;-52
2021/01/18 08:03:12;;;;;;;23.87;6.00;;;;;;;-14.75;63.79;99857.52;1659932;82;21914;-53
2021/01/18 08:05:41;;;;;;;23.35;5.03;;;;;;;-14.63;63.76;99858.58;1651838;82;21919;-52
2021/01/18 08:08:17;;;;;;;32.47;7.40;;;;;;;-14.59;63.46;99858.80;1662541;83;21218;-52
2021/01/18 08:11:24;;;;;;;30.13;5.67;;;;;;;-14.55;63.59;99860.27;1668481;83;21940;-52
2021/01/18 08:13:59;;;;;;;25.53;7.50;;;;;;;-14.52;63.47;99866.87;1667423;83;23018;-53
2021/01/18 08:16:37;;;;;;;31.33;8.77;;;;;;;-14.49;63.58;99856.70;1665104;84;21918;-53
2021/01/18 08:19:23;;;;;;;27.60;7.80;;;;;;;-14.47;63.56;99848.23;1648751;84;22401;-54
2021/01/18 08:24:25;;;;;;;22.40;5.83;;;;;;;-14.30;63.82;99855.52;1866371;75;22382;-54
2021/01/18 08:27:06;;;;;;;29.80;8.73;;;;;;;-14.29;63.64;99864.62;1810589;76;21154;-53
2021/01/18 08:29:48;;;;;;;24.20;5.97;;;;;;;-14.33;63.39;99854.05;1843424;76;21773;-52
2021/01/18 08:32:35;;;;;;;30.20;8.17;;;;;;;-14.35;63.63;99858.25;1803974;78;21667;-53
2021/01/18 08:35:20;;;;;;;31.63;9.00;;;;;;;-14.34;63.67;99860.92;1766172;79;21914;-52
2021/01/18 08:37:56;;;;;;;34.13;10.95;;;;;;;-14.26;63.75;99857.03;1807124;78;21777;-52
2021/01/18 08:40:25;;;;;;;24.63;7.07;;;;;;;-14.17;63.55;99858.78;1775778;78;21211;-54
2021/01/18 08:42:55;;;;;;;32.33;7.37;;;;;;;-14.14;63.58;99845.53;1786444;77;21380;-54
2021/01/18 08:45:25;;;;;;;27.23;7.07;;;;;;;-14.06;63.68;99851.58;1797742;77;21678;-53
2021/01/18 08:48:00;;;;;;;24.57;6.30;;;;;;;-13.98;63.68;99852.84;1800009;77;21055;-54
2021/01/18 08:50:39;;;;;;;29.10;7.87;;;;;;;-13.91;63.48;99847.16;1791073;77;21871;-54
2021/01/18 08:53:34;;;;;;;20.90;6.23;;;;;;;-13.83;63.48;99844.53;1801025;77;21848;-52
2021/01/18 08:56:06;;;;;;;23.87;6.53;;;;;;;-13.73;63.55;99837.22;1771331;79;21451;-52
2021/01/18 08:58:41;;;;;;;34.07;9.53;;;;;;;-13.65;63.40;99839.37;1800201;77;21763;-53
2021/01/18 09:01:16;;;;;;;28.73;7.33;;;;;;;-13.57;62.85;99851.38;1765648;79;21177;-52
2021/01/18 09:03:44;;;;;;;19.37;6.80;;;;;;;-13.60;62.62;99844.75;1763213;79;21509;-52
2021/01/18 09:06:11;;;;;;;30.43;8.50;;;;;;;-13.59;62.49;99840.05;1798411;77;21080;-52
2021/01/18 09:08:40;;;;;;;23.90;6.13;;;;;;;-13.68;62.67;99835.73;1776268;79;22205;-52
2021/01/18 09:11:09;;;;;;;26.47;7.07;;;;;;;-13.66;62.83;99833.70;1797797;77;21139;-52
2021/01/18 09:13:39;;;;;;;24.20;7.07;;;;;;;-13.60;63.13;99824.93;1773522;79;21483;-52
2021/01/18 09:16:08;;;;;;;21.17;5.93;;;;;;;-13.45;63.16;99829.97;1765817;79;21391;-52
2021/01/18 09:18:36;;;;;;;25.57;7.43;;;;;;;-13.31;62.83;99822.84;1779446;79;21131;-52
2021/01/18 09:21:06;;;;;;;32.10;8.10;;;;;;;-13.23;62.54;99815.91;1761962;79;22246;-52
2021/01/18 09:23:33;;;;;;;25.70;8.63;;;;;;;-13.21;62.55;99816.88;1753590;79;21119;-53
2021/01/18 09:26:11;;;;;;;26.30;7.47;;;;;;;-13.16;62.45;99813.18;1757766;80;21182;-53
2021/01/18 09:28:52;;;;;;;29.63;7.80;;;;;;;-13.11;62.23;99817.75;1752002;80;21203;-53
2021/01/18 09:31:20;;;;;;;28.47;7.57;;;;;;;-13.06;61.91;99809.76;1741254;80;21996;-53
2021/01/18 09:33:47;;;;;;;22.57;6.97;;;;;;;-13.03;61.68;99804.73;1741400;80;21011;-52
2021/01/18 09:36:19;;;;;;;33.73;11.63;;;;;;;-13.09;61.48;99804.83;1738156;80;20993;-52
2021/01/18 09:38:46;;;;;;;25.23;8.00;;;;;;;-13.19;61.41;99798.41;1740028;80;21534;-52
2021/01/18 09:41:14;;;;;;;26.73;8.87;;;;;;;-13.26;61.78;99796.33;1737625;80;21199;-52
2021/01/18 09:43:43;;;;;;;33.00;9.90;;;;;;;-13.20;61.80;99798.33;1739717;80;21112;-52
2021/01/18 09:46:10;;;;;;;33.83;9.10;;;;;;;-13.20;61.51;99801.81;1740740;80;21900;-52
2021/01/18 09:48:39;;;;;;;33.93;8.07;;;;;;;-13.26;61.77;99795.03;1738487;80;22015;-52
2021/01/18 09:51:10;;;;;;;19.97;6.77;;;;;;;-13.25;61.65;99798.52;1738608;80;21499;-53
2021/01/18 09:53:38;;;;;;;31.23;8.00;;;;;;;-13.27;61.71;99793.29;1742391;80;21221;-52
2021/01/18 09:56:11;;;;;;;27.37;8.47;;;;;;;-13.22;61.83;99794.78;1738102;80;21174;-53
2021/01/18 09:58:41;;;;;;;25.07;8.50;;;;;;;-13.15;61.73;99786.05;1761426;79;21488;-53
2021/01/18 10:01:17;;;;;;;30.47;7.83;;;;;;;-13.15;61.68;99786.05;1741604;80;23093;-54
2021/01/18 10:03:53;;;;;;;23.63;6.57;;;;;;;-13.11;61.53;99804.80;1744540;80;21510;-53
2021/01/18 10:06:28;;;;;;;27.60;7.00;;;;;;;-13.08;61.55;99801.02;1745594;80;21222;-52
2021/01/18 10:09:08;;;;;;;24.53;6.90;;;;;;;-13.07;61.50;99798.91;1742939;80;21166;-53
2021/01/18 10:11:44;;;;;;;25.57;7.63;;;;;;;-13.04;61.45;99801.66;1746590;80;21382;-53
2021/01/18 10:14:27;;;;;;;31.00;9.77;;;;;;;-12.95;61.47;99792.52;1875618;75;22725;-53
2021/01/18 10:17:09;;;;;;;25.23;8.07;;;;;;;-12.96;61.49;99797.22;1839911;76;21536;-53
2021/01/18 10:19:38;;;;;;;26.53;7.53;;;;;;;-12.89;61.61;99790.19;1802231;78;21362;-53
2021/01/18 10:22:15;;;;;;;24.03;7.73;;;;;;;-12.79;61.46;99787.20;1766646;79;21157;-53
2021/01/18 10:24:55;;;;;;;21.60;7.30;;;;;;;-12.73;61.26;99788.34;1771018;78;21441;-53
2021/01/18 10:27:27;;;;;;;27.70;9.97;;;;;;;-12.65;61.41;99791.27;1774157;79;21230;-54
2021/01/18 10:30:20;;;;;;;31.10;8.40;;;;;;;-12.55;60.95;99787.37;1782918;79;21214;-53
2021/01/18 10:32:49;;;;;;;20.33;6.03;;;;;;;-12.61;60.79;99788.01;1693592;81;21861;-52
2021/01/18 10:35:32;;;;;;;26.80;8.80;;;;;;;-12.76;60.77;99789.94;1697410;82;21170;-52
2021/01/18 10:38:14;;;;;;;22.27;6.90;;;;;;;-12.76;61.06;99788.64;1727423;81;21058;-52
2021/01/18 10:40:46;;;;;;;31.47;9.67;;;;;;;-12.71;61.06;99785.83;1694218;82;21754;-52
2021/01/18 10:43:15;;;;;;;24.27;6.60;;;;;;;-12.62;61.02;99787.53;1757728;80;21146;-52
2021/01/18 10:45:43;;;;;;;26.07;7.70;;;;;;;-12.53;61.06;99783.15;1704027;80;21659;-52
2021/01/18 10:48:10;;;;;;;27.20;9.13;;;;;;;-12.41;61.00;99783.66;1752750;80;21242;-53
2021/01/18 10:50:40;;;;;;;27.60;8.47;;;;;;;-12.34;61.00;99780.13;1753236;80;21166;-53
2021/01/18 10:53:09;;;;;;;29.97;8.60;;;;;;;-12.22;60.54;99779.73;1756235;80;21167;-53
2021/01/18 10:55:37;;;;;;;23.03;6.87;;;;;;;-12.14;60.34;99779.63;1757119;80;21193;-52
2021/01/18 10:58:06;;;;;;;23.60;7.20;;;;;;;-12.08;60.27;99783.80;1754261;80;21834;-53
2021/01/18 11:00:37;;;;;;;28.50;8.90;;;;;;;-12.07;59.94;99782.06;1725833;81;21197;-52
2021/01/18 11:03:04;;;;;;;24.10;7.30;;;;;;;-12.05;59.74;99786.91;1752389;80;21624;-53
2021/01/18 11:05:38;;;;;;;16.17;5.60;;;;;;;-12.03;59.92;99777.48;1751923;80;21241;-53
2021/01/18 11:08:09;;;;;;;23.70;6.05;;;;;;;-11.96;59.84;99771.72;1759108;80;21162;-53
2021/01/18 11:10:42;;;;;;;22.67;8.10;;;;;;;-11.91;59.71;99772.81;1723182;81;21609;-52
2021/01/18 11:13:14;;;;;;;22.30;7.87;;;;;;;-11.84;59.69;99772.23;1754855;80;21628;-52
2021/01/18 11:15:42;;;;;;;21.37;7.07;;;;;;;-11.79;59.21;99765.91;1723208;80;21232;-52
2021/01/18 11:18:11;;;;;;;22.90;5.93;;;;;;;-11.89;59.00;99765.54;1754148;80;21639;-52
2021/01/18 11:20:40;;;;;;;22.20;6.67;;;;;;;-11.91;59.29;99770.22;1762642;80;21195;-52
2021/01/18 11:23:10;;;;;;;21.10;4.83;;;;;;;-11.88;59.32;99767.31;1752634;80;21201;-52
2021/01/18 11:25:38;;;;;;;16.37;5.20;;;;;;;-11.80;59.17;99765.02;1722576;81;21297;-53
2021/01/18 11:28:14;;;;;;;23.67;7.20;;;;;;;-11.78;59.13;99759.48;1750929;80;21410;-53
2021/01/18 11:30:43;;;;;;;21.30;6.93;;;;;;;-11.82;59.10;99763.22;1744760;80;21114;-52
2021/01/18 11:33:10;;;;;;;18.60;5.80;;;;;;;-11.90;59.28;99760.28;1739443;80;21186;-53
2021/01/18 11:35:39;;;;;;;20.47;7.33;;;;;;;-11.85;59.50;99765.67;1738225;80;23014;-53
2021/01/18 11:38:06;;;;;;;19.73;5.83;;;;;;;-11.77;59.34;99762.97;1737729;80;21245;-53
2021/01/18 11:40:33;;;;;;;23.27;7.47;;;;;;;-11.72;59.25;99755.80;1737269;80;21162;-54
2021/01/18 11:43:00;;;;;;;20.80;6.73;;;;;;;-11.69;59.21;99757.22;1736575;80;21217;-53
2021/01/18 11:45:28;;;;;;;22.00;5.43;;;;;;;-11.65;59.34;99753.91;1740956;80;21225;-53
2021/01/18 11:47:55;;;;;;;20.43;6.70;;;;;;;-11.60;59.49;99764.08;1737225;80;21332;-54